Início
Estação Aeroclube
Estação São Gotardo
Temperatura
Umidade
Pressão Atmosférica
Vento
Precipitação
Configuração do gráfico
Período
v
     
 
v
   
Aplicar
Linhas e valores
etiquetasséries
The Temperatura média no período chart showing Mínima series, Máxima series, Média series, Sensação térmica series.
   
Hora
Temperatura média
Temperatura máxima
Temperatura mínima
Sensação térmica
Data: 25/10/2021
 04:00:0011,8812,0911,6511,9
 03:00:0011,9712,2511,7412,09
 02:00:0012,313,3711,7412,34
 01:00:0014,0215,6813,2314,68
 00:00:0015,8115,9915,317,34
Data: 24/10/2021
 23:00:0015,8616,0515,5317,02
 22:00:0015,7816,1315,5316,98
 21:00:0015,8116,2615,1316,63
 20:00:0015,8716,2315,4116,83
 19:00:0016,0816,4415,3916,71
 18:00:0016,8917,5116,3417,4
 17:00:0017,6818,4317,3217,62
 16:00:0018,0418,6617,617,74
 15:00:0017,8618,4317,4117,25
 14:00:0017,7318,1517,1417,22
 13:00:0017,2518,1516,5116,49
 12:00:0016,2417,2315,6115,24
 11:00:0015,7516,4914,9914,61
 10:00:0014,8315,8414,2113,3
 09:00:0014,0814,8213,1912,64
 08:00:0013,0213,5212,3311,46
 07:00:0012,1912,611,8510,7
 06:00:001212,1611,8310,57
 05:00:0012,0212,2511,5410,88
 04:00:0012,1812,3312,0711,3
 03:00:0012,2812,4412,0810,86
 02:00:0012,4912,5912,3711,41
 01:00:0012,6112,7512,0911,12
 00:00:0012,9215,1812,6711,17
Data: 23/10/2021 (Continua na próxima página)
 23:00:0015,0415,1813,9514,41
 22:00:0015,0515,3614,9214,92
 21:00:0015,3915,4915,2315,94
 20:00:0015,315,4915,1715,22
 19:00:0015,4615,5315,3714,98
 18:00:0015,3715,4415,2614,47
 17:00:0015,315,3515,1714,36
 16:00:0015,3915,5315,2614,41
 15:00:0015,5415,7915,3514,55
 14:00:0016,2117,7815,715,65
 13:00:0019,342117,3219,33
 12:00:0021,5522,320,7222,11
 11:00:0022,1222,321,922,63
 10:00:0022,2622,7121,922,96
 09:00:0021,5422,3620,7222,21
 08:00:0020,1820,9219,1620,54
 07:00:0018,4919,2717,1918,71
 06:00:0016,8117,4716,2217,02
Página 1 de 4 (181 itens)
Anterior
[1]
2
3
4
Próxima